Time;durP1;ratioP1;P1;durP2;ratioP2;P2;SDS_P1;SDS_P2;PMS_P1;PMS_P2;Temp;Humidity;BMP_temperature;BMP_pressure;BME280_temperature;BME280_humidity;BME280_pressure;Samples;Min_cycle;Max_cycle;Signal;HPM_P1;HPM_P2
2022/08/29 00:01:04;;;;;;;4.97;1.73;;;;;;;17.64;49.69;100356.69;5051478;28;20444;-59
2022/08/29 00:03:31;;;;;;;5.32;1.80;;;;;;;17.63;49.46;100346.97;5051249;28;20049;-60
2022/08/29 00:05:58;;;;;;;3.83;1.75;;;;;;;17.61;49.37;100346.25;5051455;28;20048;-59
2022/08/29 00:08:24;;;;;;;4.10;1.65;;;;;;;17.58;49.62;100342.84;5051064;28;20076;-62
2022/08/29 00:10:51;;;;;;;7.40;2.03;;;;;;;17.57;49.42;100346.50;5051509;28;20111;-60
2022/08/29 00:13:18;;;;;;;8.43;2.17;;;;;;;17.54;49.69;100344.06;5049985;28;20045;-60
2022/08/29 00:15:45;;;;;;;5.97;1.80;;;;;;;17.54;49.61;100343.22;5051039;28;20045;-60
2022/08/29 00:18:14;;;;;;;4.53;2.00;;;;;;;17.51;49.88;100336.31;5050725;28;20052;-59
2022/08/29 00:20:42;;;;;;;2.83;1.80;;;;;;;17.50;49.64;100333.78;5050923;28;20049;-63
2022/08/29 00:23:09;;;;;;;5.75;2.08;;;;;;;17.49;49.62;100337.41;5051309;28;20044;-60
2022/08/29 00:25:36;;;;;;;6.70;1.80;;;;;;;17.49;50.08;100332.91;5051279;28;20052;-59
2022/08/29 00:28:04;;;;;;;5.88;1.92;;;;;;;17.46;49.75;100338.50;5050826;28;20413;-63
2022/08/29 00:30:32;;;;;;;5.80;2.00;;;;;;;17.44;50.00;100343.94;5050786;28;20048;-62
2022/08/29 00:32:58;;;;;;;5.32;2.08;;;;;;;17.43;49.46;100346.72;5050861;28;20056;-60
2022/08/29 00:35:28;;;;;;;3.05;1.55;;;;;;;17.38;49.84;100348.88;5050555;28;20087;-62
2022/08/29 00:37:56;;;;;;;6.70;2.38;;;;;;;17.37;49.86;100353.34;5050718;28;20061;-61
2022/08/29 00:40:33;;;;;;;6.65;1.92;;;;;;;17.31;49.96;100356.50;5050604;28;20064;-61
2022/08/29 00:43:01;;;;;;;4.13;1.98;;;;;;;17.30;49.40;100362.75;5049896;28;20099;-60
2022/08/29 00:45:29;;;;;;;5.45;2.17;;;;;;;17.26;49.51;100358.63;5049235;28;20056;-61
2022/08/29 00:48:10;;;;;;;5.45;2.60;;;;;;;17.19;50.50;100361.75;5049588;28;20391;-61
2022/08/29 00:50:37;;;;;;;6.25;2.20;;;;;;;17.20;50.00;100362.63;5050823;28;20044;-60
2022/08/29 00:53:07;;;;;;;8.48;2.38;;;;;;;17.18;50.56;100364.53;5050754;28;20060;-60
2022/08/29 00:55:37;;;;;;;2.60;1.65;;;;;;;17.17;50.24;100368.16;5050331;28;20049;-60
2022/08/29 00:58:10;;;;;;;4.00;2.28;;;;;;;17.16;50.81;100361.16;5050318;28;20051;-61
2022/08/29 01:00:40;;;;;;;5.35;2.33;;;;;;;17.16;50.17;100361.16;5049201;28;20102;-61
2022/08/29 01:03:07;;;;;;;7.55;2.28;;;;;;;17.16;50.27;100366.47;5050468;28;20064;-60
2022/08/29 01:05:35;;;;;;;4.03;1.85;;;;;;;17.17;50.30;100376.16;5050287;28;20053;-60
2022/08/29 01:08:03;;;;;;;6.75;2.20;;;;;;;17.17;50.32;100369.03;5050284;28;20045;-61
2022/08/29 01:13:15;;;;;;;8.20;2.70;;;;;;;17.19;50.25;100376.88;5050527;28;20068;-60
2022/08/29 01:15:45;;;;;;;2.95;1.75;;;;;;;17.19;50.43;100376.88;5050007;28;20045;-60
2022/08/29 01:18:14;;;;;;;4.57;1.90;;;;;;;17.19;50.12;100368.88;5050137;28;20055;-59
2022/08/29 01:21:06;;;;;;;5.40;2.03;;;;;;;17.18;50.92;100377.84;5049928;28;20045;-60
2022/08/29 01:23:41;;;;;;;3.75;2.03;;;;;;;17.18;50.90;100369.84;5050365;28;20052;-60
2022/08/29 01:26:10;;;;;;;5.22;2.30;;;;;;;17.20;50.56;100367.94;5050536;28;20049;-60
2022/08/29 01:28:43;;;;;;;6.35;2.10;;;;;;;17.18;51.02;100365.41;5050108;28;20052;-60
2022/08/29 01:31:15;;;;;;;4.18;2.15;;;;;;;17.18;50.46;100364.53;5048998;28;20405;-61
2022/08/29 01:34:01;;;;;;;4.03;1.95;;;;;;;17.18;50.26;100370.72;5050326;28;20057;-61
2022/08/29 01:36:44;;;;;;;4.80;2.15;;;;;;;17.14;51.04;100371.03;5050095;28;20060;-62
2022/08/29 01:39:11;;;;;;;4.68;2.40;;;;;;;17.18;50.30;100369.84;5048628;28;20497;-60
2022/08/29 01:41:40;;;;;;;6.15;2.30;;;;;;;17.16;50.06;100371.78;5049904;28;20049;-62
2022/08/29 01:44:13;;;;;;;7.00;2.50;;;;;;;17.13;50.62;100370.22;5050158;28;20064;-60
2022/08/29 01:46:39;;;;;;;4.50;1.90;;;;;;;17.15;50.14;100368.28;5050059;28;20048;-60
2022/08/29 01:49:09;;;;;;;5.93;2.80;;;;;;;17.13;50.45;100364.91;5049975;28;20314;-60
2022/08/29 01:51:36;;;;;;;6.35;2.60;;;;;;;17.14;50.74;100369.25;5048611;28;20056;-60
2022/08/29 01:54:06;;;;;;;5.78;2.28;;;;;;;17.14;50.31;100376.38;5049871;28;20049;-60
2022/08/29 01:56:35;;;;;;;6.10;2.40;;;;;;;17.12;50.67;100370.31;5053599;28;20271;-62
2022/08/29 01:59:05;;;;;;;6.70;2.33;;;;;;;17.13;50.43;100366.69;5052095;28;20052;-61
2022/08/29 02:01:35;;;;;;;4.90;2.28;;;;;;;17.13;50.48;100362.25;5053553;28;20068;-60
2022/08/29 02:04:03;;;;;;;6.93;2.70;;;;;;;17.13;50.79;100364.91;5053555;28;20053;-61
2022/08/29 02:06:31;;;;;;;6.10;2.40;;;;;;;17.15;50.29;100372.72;5052051;28;20150;-62
2022/08/29 02:08:57;;;;;;;6.75;2.53;;;;;;;17.15;50.49;100370.94;5053387;28;20064;-61
2022/08/29 02:11:24;;;;;;;5.32;2.67;;;;;;;17.16;50.27;100374.47;5053577;28;20052;-59
2022/08/29 02:13:56;;;;;;;6.80;2.63;;;;;;;17.13;50.74;100370.22;5053323;28;20060;-61
2022/08/29 02:16:28;;;;;;;8.65;2.70;;;;;;;17.13;50.74;100372.03;5052152;28;20041;-59
2022/08/29 02:18:55;;;;;;;4.70;2.67;;;;;;;17.14;50.46;100368.38;5052995;28;20433;-60
2022/08/29 02:21:25;;;;;;;8.38;3.13;;;;;;;17.12;50.88;100371.16;5053458;28;20080;-59
2022/08/29 02:23:53;;;;;;;4.78;2.35;;;;;;;17.14;50.54;100365.72;5053098;28;20057;-61
2022/08/29 02:26:20;;;;;;;5.68;2.28;;;;;;;17.13;50.28;100362.25;5053494;28;20060;-62
2022/08/29 02:28:50;;;;;;;5.75;2.53;;;;;;;17.12;50.38;100367.66;5051481;28;20226;-61
2022/08/29 02:31:19;;;;;;;5.07;2.40;;;;;;;17.10;50.31;100372.25;5051822;28;20057;-60
2022/08/29 02:33:47;;;;;;;4.72;2.40;;;;;;;17.11;50.63;100372.13;5051718;28;20060;-61
2022/08/29 02:36:14;;;;;;;4.75;2.05;;;;;;;17.10;50.66;100380.22;5051555;28;20053;-61
2022/08/29 02:38:44;;;;;;;6.82;2.67;;;;;;;17.10;50.59;100378.41;5052759;28;20049;-61
2022/08/29 02:41:11;;;;;;;4.85;2.25;;;;;;;17.11;50.50;100373.94;5052874;28;20056;-60
2022/08/29 02:43:40;;;;;;;4.10;2.40;;;;;;;17.09;50.57;100374.06;5052730;28;20118;-60
2022/08/29 02:46:07;;;;;;;6.47;2.47;;;;;;;17.08;50.69;100372.34;5052712;28;20048;-59
2022/08/29 02:48:33;;;;;;;6.93;3.03;;;;;;;17.08;50.58;100371.53;5052642;28;20410;-60
2022/08/29 02:51:00;;;;;;;9.60;2.58;;;;;;;17.07;51.06;100368.00;5052634;28;20060;-60
2022/08/29 02:53:29;;;;;;;7.43;3.17;;;;;;;17.07;51.36;100373.31;5052605;28;20045;-59
2022/08/29 02:55:57;;;;;;;6.97;2.92;;;;;;;17.08;51.20;100369.69;5052370;28;20056;-61
2022/08/29 02:58:24;;;;;;;7.15;2.67;;;;;;;17.08;51.03;100374.19;5052374;28;20413;-60
2022/08/29 03:00:52;;;;;;;7.43;3.10;;;;;;;17.06;51.07;100367.16;5052577;28;20053;-62
2022/08/29 03:03:20;;;;;;;5.60;2.72;;;;;;;17.06;50.92;100366.31;5052531;28;20096;-59
2022/08/29 03:05:46;;;;;;;7.28;2.80;;;;;;;17.04;50.67;100358.44;5051763;28;20053;-62
2022/08/29 03:08:13;;;;;;;7.32;3.20;;;;;;;17.03;51.09;100364.69;5052042;28;20057;-59
2022/08/29 03:10:42;;;;;;;7.15;2.78;;;;;;;17.00;51.36;100362.25;5052137;28;20052;-61
2022/08/29 03:13:09;;;;;;;4.38;2.80;;;;;;;17.00;51.19;100370.25;5050939;28;20056;-59
2022/08/29 03:15:36;;;;;;;5.47;2.58;;;;;;;16.98;50.96;100360.69;5050781;28;20045;-59
2022/08/29 03:18:04;;;;;;;5.90;2.63;;;;;;;16.98;50.99;100366.88;5052101;28;20055;-65
2022/08/29 03:20:34;;;;;;;6.22;2.97;;;;;;;16.96;50.94;100367.94;5052108;28;20417;-62
2022/08/29 03:23:01;;;;;;;6.13;2.75;;;;;;;16.97;50.96;100359.00;5052182;28;20451;-63
2022/08/29 03:25:27;;;;;;;8.73;3.10;;;;;;;16.96;51.17;100362.63;5051899;28;20060;-60
2022/08/29 03:27:54;;;;;;;8.25;2.83;;;;;;;16.95;50.95;100359.09;5052189;28;20053;-59
2022/08/29 03:30:21;;;;;;;6.72;2.92;;;;;;;16.94;51.19;100360.06;5051515;28;20048;-62
2022/08/29 03:32:49;;;;;;;5.55;2.70;;;;;;;16.95;51.29;100367.06;5051916;28;20057;-60
2022/08/29 03:35:18;;;;;;;6.65;2.50;;;;;;;16.94;51.40;100370.72;5051652;28;20048;-60
2022/08/29 03:37:45;;;;;;;4.80;2.80;;;;;;;16.94;51.60;100365.38;5050515;28;20103;-60
2022/08/29 03:40:12;;;;;;;7.38;3.35;;;;;;;16.92;51.47;100354.88;5051312;28;20053;-60
2022/08/29 03:42:41;;;;;;;7.80;2.63;;;;;;;16.94;51.19;100360.06;5050573;28;20560;-60
2022/08/29 03:45:12;;;;;;;5.85;2.40;;;;;;;16.92;51.24;100356.66;5051742;28;20057;-61
2022/08/29 03:47:39;;;;;;;4.80;2.28;;;;;;;16.92;50.98;100354.00;5051613;28;20044;-60
2022/08/29 03:50:07;;;;;;;8.93;3.13;;;;;;;16.90;51.03;100356.78;5051259;28;20223;-61
2022/08/29 03:52:33;;;;;;;6.78;2.63;;;;;;;16.91;51.24;100368.28;5051499;28;20053;-62
2022/08/29 03:55:00;;;;;;;8.38;2.92;;;;;;;16.88;51.39;100374.66;5051599;28;20064;-59
2022/08/29 03:57:27;;;;;;;6.75;2.67;;;;;;;16.88;51.19;100376.47;5051387;28;20095;-60
2022/08/29 03:59:56;;;;;;;5.25;2.42;;;;;;;16.86;51.32;100381.06;5051149;28;20045;-60
2022/08/29 04:02:23;;;;;;;6.20;2.80;;;;;;;16.86;51.17;100378.41;5050827;28;20054;-60
2022/08/29 04:05:08;;;;;;;5.97;2.50;;;;;;;16.84;51.56;100378.50;5051272;28;20056;-59
2022/08/29 04:07:46;;;;;;;5.40;2.42;;;;;;;16.81;51.79;100378.72;5051093;28;20127;-59
2022/08/29 04:10:20;;;;;;;4.47;2.20;;;;;;;16.81;51.85;100381.38;5051141;28;20060;-60
2022/08/29 04:12:47;;;;;;;6.75;2.58;;;;;;;16.82;51.69;100376.94;5049994;28;20044;-60
2022/08/29 04:15:20;;;;;;;;;;;;;;;16.80;51.26;100379.69;5050286;28;20059;-61
2022/08/29 04:17:50;;;;;;;4.93;1.98;;;;;;;16.85;51.78;100379.38;5050712;28;19927;-58
2022/08/29 04:20:21;;;;;;;4.43;2.47;;;;;;;16.83;51.60;100367.97;5050999;28;20057;-60
2022/08/29 04:22:52;;;;;;;4.43;2.10;;;;;;;16.79;51.64;100370.84;5049521;28;20551;-59
2022/08/29 04:25:23;;;;;;;5.93;2.53;;;;;;;16.78;51.66;100378.94;5051015;28;20394;-59
2022/08/29 04:27:51;;;;;;;7.85;2.92;;;;;;;16.75;51.60;100373.88;5050735;28;20049;-59
2022/08/29 04:30:22;;;;;;;8.75;2.78;;;;;;;16.73;51.64;100373.13;5050477;28;20056;-60
2022/08/29 04:32:49;;;;;;;7.93;2.67;;;;;;;16.74;51.46;100380.16;5049665;28;20065;-60
2022/08/29 04:35:16;;;;;;;6.35;2.58;;;;;;;16.72;51.54;100374.94;5050594;28;20493;-61
2022/08/29 04:37:43;;;;;;;2.85;2.47;;;;;;;16.70;51.66;100382.16;5050709;28;20489;-60
2022/08/29 04:40:14;;;;;;;5.93;2.83;;;;;;;16.68;51.85;100389.44;5050350;28;20045;-59
2022/08/29 04:42:41;;;;;;;6.10;2.72;;;;;;;16.67;51.57;100385.03;5050660;28;20052;-59
2022/08/29 04:45:12;;;;;;;6.10;2.60;;;;;;;16.66;51.94;100383.34;5050684;28;20508;-59
2022/08/29 04:47:40;;;;;;;5.50;2.42;;;;;;;16.66;51.89;100388.66;5049574;28;20044;-62
2022/08/29 04:50:09;;;;;;;8.52;2.90;;;;;;;16.65;52.40;100389.63;5048929;28;20049;-62
2022/08/29 04:52:36;;;;;;;7.85;2.95;;;;;;;16.65;52.02;100394.94;5049313;28;20045;-60
2022/08/29 04:55:04;;;;;;;5.03;2.42;;;;;;;16.63;52.00;100395.06;5050196;28;20049;-60
2022/08/29 04:57:33;;;;;;;4.15;2.42;;;;;;;16.62;52.40;100397.81;5050637;28;20489;-60
2022/08/29 04:59:59;;;;;;;6.53;2.67;;;;;;;16.63;52.13;100396.88;5048716;28;20063;-60
2022/08/29 05:02:26;;;;;;;4.88;2.45;;;;;;;16.64;52.11;100395.91;5050317;28;20049;-59
2022/08/29 05:04:55;;;;;;;6.70;2.72;;;;;;;16.65;52.50;100397.63;5050349;28;20048;-60
2022/08/29 05:07:25;;;;;;;8.70;2.80;;;;;;;16.66;52.83;100397.50;5050214;28;20091;-59
2022/08/29 05:10:01;;;;;;;5.40;2.65;;;;;;;16.68;53.29;100411.53;5049781;28;20485;-60
2022/08/29 05:12:29;;;;;;;5.70;2.70;;;;;;;16.73;52.67;100399.69;5050472;28;20049;-60
2022/08/29 05:14:56;;;;;;;4.85;2.45;;;;;;;16.76;52.56;100397.69;5047254;28;20561;-59
2022/08/29 05:17:23;;;;;;;5.35;2.95;;;;;;;16.79;52.44;100402.75;5048712;28;20527;-61
2022/08/29 05:19:50;;;;;;;4.95;2.80;;;;;;;16.83;52.45;100403.41;5048296;28;20498;-60
2022/08/29 05:22:18;;;;;;;4.35;2.38;;;;;;;16.85;53.03;100405.97;5048364;28;20468;-62
2022/08/29 05:24:46;;;;;;;5.95;2.97;;;;;;;16.89;52.51;100404.75;5047166;28;20060;-60
2022/08/29 05:27:17;;;;;;;7.07;2.47;;;;;;;16.91;53.15;100397.53;5047266;28;20049;-60
2022/08/29 05:29:46;;;;;;;6.78;3.05;;;;;;;16.94;52.85;100391.97;5050761;28;20059;-60
2022/08/29 05:32:13;;;;;;;6.25;2.65;;;;;;;16.98;52.68;100396.13;5052844;28;20060;-59
2022/08/29 05:34:42;;;;;;;8.25;2.60;;;;;;;17.01;52.68;100403.00;5054063;28;20053;-59
2022/08/29 05:37:18;;;;;;;5.95;2.35;;;;;;;17.02;53.10;100404.69;5054042;28;20056;-59
2022/08/29 05:39:47;;;;;;;6.15;2.85;;;;;;;17.08;52.87;100404.25;5052378;28;20064;-61
2022/08/29 05:42:16;;;;;;;6.07;3.10;;;;;;;17.12;52.59;100399.59;5054119;28;20068;-59
2022/08/29 05:44:43;;;;;;;6.10;2.83;;;;;;;17.17;52.59;100413.38;5054108;28;20052;-60
2022/08/29 05:47:12;;;;;;;8.48;3.03;;;;;;;17.20;52.58;100415.81;5053706;28;20412;-63
2022/08/29 05:49:40;;;;;;;6.22;2.92;;;;;;;17.25;52.61;100415.47;5053449;28;20075;-59
2022/08/29 05:52:08;;;;;;;6.05;3.10;;;;;;;17.28;53.29;100413.44;5053994;28;20051;-59
2022/08/29 05:54:38;;;;;;;9.52;3.53;;;;;;;17.34;53.11;100416.59;5053808;28;20402;-60
2022/08/29 05:57:06;;;;;;;7.75;3.00;;;;;;;17.39;53.40;100422.44;5052445;28;20044;-60
2022/08/29 05:59:34;;;;;;;6.20;2.67;;;;;;;17.45;53.48;100430.78;5051828;28;20052;-59
2022/08/29 06:02:01;;;;;;;4.60;2.72;;;;;;;17.52;54.19;100438.31;5053590;28;20049;-59
2022/08/29 06:04:28;;;;;;;3.78;2.30;;;;;;;17.60;54.44;100429.75;5053716;28;20049;-59
2022/08/29 06:06:54;;;;;;;8.32;3.15;;;;;;;17.66;54.05;100438.13;5053701;28;20056;-60
2022/08/29 06:09:21;;;;;;;5.97;2.83;;;;;;;17.78;54.59;100433.66;5053343;28;20497;-60
2022/08/29 06:11:49;;;;;;;4.70;2.25;;;;;;;17.84;54.21;100430.50;5053616;28;20041;-59
2022/08/29 06:14:16;;;;;;;5.50;2.60;;;;;;;17.93;54.34;100423.63;5051667;28;20367;-62
2022/08/29 06:16:43;;;;;;;9.65;3.13;;;;;;;18.02;54.20;100427.38;5053849;28;20052;-60
2022/08/29 06:19:10;;;;;;;7.88;2.58;;;;;;;18.10;54.09;100422.34;5053003;28;20540;-62
2022/08/29 06:21:37;;;;;;;4.18;2.38;;;;;;;18.19;54.07;100417.25;5053404;28;20501;-60
2022/08/29 06:24:05;;;;;;;9.10;2.90;;;;;;;18.28;54.54;100416.53;5053187;28;20055;-59
2022/08/29 06:26:32;;;;;;;8.20;3.30;;;;;;;18.39;54.13;100417.50;5053257;28;20044;-60
2022/08/29 06:28:59;;;;;;;4.32;2.70;;;;;;;18.48;53.84;100419.44;5052784;28;20044;-59
2022/08/29 06:31:28;;;;;;;8.10;2.38;;;;;;;18.56;53.73;100422.34;5053337;28;20080;-59
2022/08/29 06:34:01;;;;;;;5.93;2.40;;;;;;;18.62;53.75;100413.84;5051866;28;20052;-62
2022/08/29 06:36:30;;;;;;;5.57;2.30;;;;;;;18.72;53.66;100423.75;5051825;28;20057;-60
2022/08/29 06:39:01;;;;;;;6.20;2.63;;;;;;;18.80;53.22;100423.97;5052906;28;20071;-62
2022/08/29 06:41:29;;;;;;;8.65;3.05;;;;;;;18.86;53.67;100428.84;5050106;28;20044;-60
2022/08/29 06:43:56;;;;;;;6.35;2.40;;;;;;;18.93;53.07;100431.00;5052919;28;20052;-60
2022/08/29 06:46:36;;;;;;;5.20;2.78;;;;;;;18.93;53.59;100431.84;5052971;28;20069;-62
2022/08/29 06:49:05;;;;;;;6.97;3.03;;;;;;;19.03;53.12;100431.94;5052584;28;20438;-62
2022/08/29 06:51:34;;;;;;;5.28;2.65;;;;;;;19.08;53.59;100429.78;5051291;28;20068;-60
2022/08/29 06:54:03;;;;;;;7.18;2.65;;;;;;;19.13;53.20;100438.25;5051425;28;20049;-60
2022/08/29 06:56:33;;;;;;;5.25;2.53;;;;;;;19.20;52.89;100435.91;5051396;28;20139;-60
2022/08/29 06:59:03;;;;;;;5.28;2.75;;;;;;;19.23;52.97;100424.13;5052623;28;20057;-59
2022/08/29 07:01:30;;;;;;;6.57;3.08;;;;;;;19.28;53.21;100435.25;5052547;28;20060;-60
2022/08/29 07:03:59;;;;;;;10.05;3.03;;;;;;;19.33;53.48;100432.22;5052561;28;20048;-60
2022/08/29 07:06:26;;;;;;;7.20;2.70;;;;;;;19.37;53.03;100425.66;5052345;28;20509;-60
2022/08/29 07:08:53;;;;;;;6.47;2.80;;;;;;;19.45;53.04;100427.66;5052543;28;20064;-60
2022/08/29 07:11:28;;;;;;;5.53;2.63;;;;;;;19.50;53.29;100426.31;5052340;28;20049;-60
2022/08/29 07:13:57;;;;;;;4.88;2.72;;;;;;;19.59;53.31;100431.84;5052618;28;20083;-61
2022/08/29 07:16:24;;;;;;;5.38;2.60;;;;;;;19.68;53.03;100436.41;5052096;28;20401;-61
2022/08/29 07:18:52;;;;;;;6.53;2.90;;;;;;;19.78;53.04;100439.16;5052021;28;20472;-59
2022/08/29 07:21:22;;;;;;;7.07;2.80;;;;;;;19.86;52.99;100439.34;5050922;28;20048;-60
2022/08/29 07:23:49;;;;;;;7.40;2.97;;;;;;;19.96;52.93;100430.53;5052209;28;20056;-60
2022/08/29 07:26:25;;;;;;;5.50;1.95;;;;;;;20.03;53.51;100437.06;5050716;28;20414;-61
2022/08/29 07:28:55;;;;;;;8.52;2.95;;;;;;;20.14;52.78;100441.47;5051812;28;20060;-61
2022/08/29 07:31:23;;;;;;;6.03;2.42;;;;;;;20.22;52.51;100436.31;5051790;28;20379;-60
2022/08/29 07:33:56;;;;;;;6.57;2.53;;;;;;;20.30;52.50;100432.97;5052128;28;20498;-62
2022/08/29 07:36:32;;;;;;;4.97;2.17;;;;;;;20.37;52.81;100428.75;5051953;28;20052;-60
2022/08/29 07:39:01;;;;;;;5.80;2.55;;;;;;;20.46;52.40;100435.16;5051736;28;20341;-59
2022/08/29 07:41:27;;;;;;;4.78;2.30;;;;;;;20.53;52.67;100438.13;5050457;28;20075;-61
2022/08/29 07:43:54;;;;;;;5.20;2.22;;;;;;;20.59;52.69;100437.56;5050375;28;20072;-62
2022/08/29 07:46:21;;;;;;;7.60;2.45;;;;;;;20.65;52.30;100436.19;5051882;28;20052;-61
2022/08/29 07:48:48;;;;;;;7.18;2.65;;;;;;;20.68;52.19;100428.72;5051460;28;20045;-59
2022/08/29 07:51:17;;;;;;;6.43;2.25;;;;;;;20.70;52.21;100436.59;5051428;28;20052;-62
2022/08/29 07:53:45;;;;;;;4.10;2.58;;;;;;;20.73;52.25;100430.13;5051001;28;20053;-59
2022/08/29 07:56:15;;;;;;;4.90;2.25;;;;;;;20.74;52.59;100431.84;5051448;28;20049;-59
2022/08/29 07:58:42;;;;;;;7.60;2.83;;;;;;;20.78;52.68;100449.31;5051150;28;20076;-60
2022/08/29 08:01:09;;;;;;;4.63;1.90;;;;;;;20.82;52.79;100456.09;5051503;28;20477;-61
2022/08/29 08:03:48;;;;;;;6.20;2.45;;;;;;;20.84;52.59;100454.09;5050226;28;20107;-61
2022/08/29 08:06:20;;;;;;;5.75;2.33;;;;;;;20.85;52.55;100447.75;5051307;28;20055;-61
2022/08/29 08:08:48;;;;;;;5.35;2.53;;;;;;;20.89;52.40;100451.06;5050925;28;20048;-61
2022/08/29 08:11:15;;;;;;;7.10;2.90;;;;;;;20.90;52.79;100456.25;5051024;28;20052;-62
2022/08/29 08:13:43;;;;;;;4.97;2.58;;;;;;;20.92;52.54;100456.13;5049966;28;20045;-60
2022/08/29 08:16:13;;;;;;;10.35;2.78;;;;;;;20.94;52.64;100457.66;5050953;28;20064;-61
2022/08/29 08:18:42;;;;;;;5.75;2.67;;;;;;;20.99;52.83;100459.09;5050808;28;20067;-60
2022/08/29 08:21:10;;;;;;;6.72;2.22;;;;;;;21.03;52.83;100464.03;5049786;28;20052;-61
2022/08/29 08:23:37;;;;;;;4.32;2.53;;;;;;;21.11;52.67;100457.97;5049431;28;20079;-61
2022/08/29 08:26:05;;;;;;;48.22;3.97;;;;;;;21.18;52.96;100467.16;5049634;28;20044;-61
2022/08/29 08:28:32;;;;;;;6.25;2.45;;;;;;;21.27;52.88;100462.78;5049234;28;20045;-61
2022/08/29 08:30:59;;;;;;;4.43;2.22;;;;;;;21.35;52.71;100462.91;5050956;28;20405;-60
2022/08/29 08:33:32;;;;;;;12.30;2.75;;;;;;;21.46;52.71;100461.09;5049608;28;20086;-62
2022/08/29 08:36:00;;;;;;;4.45;2.40;;;;;;;21.58;52.98;100464.47;5050724;28;20134;-60
2022/08/29 08:38:27;;;;;;;6.22;2.63;;;;;;;21.68;52.61;100459.94;5050722;28;20053;-60
2022/08/29 08:41:26;;;;;;;7.28;2.58;;;;;;;21.77;53.05;100458.28;5050940;28;20405;-60
2022/08/29 08:44:35;;;;;;;6.75;2.90;;;;;;;21.92;52.72;100452.47;5016743;28;20053;-60
2022/08/29 08:47:06;;;;;;;4.75;2.22;;;;;;;22.11;52.56;100463.13;5048929;28;20045;-60
2022/08/29 08:49:43;;;;;;;5.00;2.03;;;;;;;22.20;52.54;100464.09;5049214;28;20064;-60
2022/08/29 08:52:29;;;;;;;8.63;2.47;;;;;;;22.31;51.79;100462.22;5050543;28;20515;-61
2022/08/29 08:55:13;;;;;;;6.70;2.63;;;;;;;22.40;51.54;100464.03;5049460;28;20052;-60
2022/08/29 08:57:48;;;;;;;7.47;2.13;;;;;;;22.50;51.65;100466.66;5050556;28;20049;-60
2022/08/29 09:00:15;;;;;;;5.07;2.15;;;;;;;22.58;51.83;100472.13;5050529;28;20055;-60
2022/08/29 09:02:51;;;;;;;4.25;1.85;;;;;;;22.65;51.87;100473.25;5050640;28;20489;-62
2022/08/29 09:05:56;;;;;;;4.95;1.92;;;;;;;22.70;51.56;100466.59;5049586;28;20045;-61
2022/08/29 09:08:51;;;;;;;5.40;1.95;;;;;;;22.83;51.13;100474.28;5051230;28;20140;-61
2022/08/29 09:12:03;;;;;;;6.85;2.03;;;;;;;22.91;51.27;100474.34;5050799;28;20064;-62
2022/08/29 09:15:06;;;;;;;3.55;1.95;;;;;;;23.02;50.88;100478.66;5014461;28;20064;-60
2022/08/29 09:17:54;;;;;;;5.75;1.85;;;;;;;23.04;51.03;100474.00;5049697;28;20252;-60
2022/08/29 09:20:27;;;;;;;6.22;2.40;;;;;;;23.11;50.42;100474.25;5048941;28;20089;-60
2022/08/29 09:23:01;;;;;;;3.55;1.92;;;;;;;23.11;50.84;100472.41;5048989;28;20493;-62
2022/08/29 09:25:29;;;;;;;4.50;2.33;;;;;;;23.15;50.85;100475.63;5050594;28;20059;-61
2022/08/29 09:27:58;;;;;;;6.72;2.38;;;;;;;23.17;50.75;100479.84;5049462;28;20048;-59
2022/08/29 09:30:34;;;;;;;7.88;2.42;;;;;;;23.21;50.65;100480.38;5050665;28;20048;-60
2022/08/29 09:33:09;;;;;;;6.45;2.47;;;;;;;23.24;50.54;100472.03;5049700;28;20049;-60
2022/08/29 09:35:41;;;;;;;6.10;2.13;;;;;;;23.30;50.38;100474.06;5050389;28;20584;-59
2022/08/29 09:38:23;;;;;;;4.35;1.92;;;;;;;23.34;50.53;100480.03;5050260;28;20394;-60
2022/08/29 09:41:07;;;;;;;;;;;;;;;;;;;;;
2022/08/29 09:43:42;;;;;;;4.63;2.00;;;;;;;23.43;50.12;100468.38;5050765;28;20052;-61
2022/08/29 09:46:10;;;;;;;8.20;2.15;;;;;;;23.50;50.12;100471.28;5050358;28;20095;-59
2022/08/29 09:49:11;;;;;;;6.50;2.17;;;;;;;23.53;50.20;100470.97;5049081;28;20084;-64
2022/08/29 09:51:54;;;;;;;5.28;2.10;;;;;;;23.58;49.95;100475.88;5049053;28;20175;-63
2022/08/29 09:54:21;;;;;;;5.68;2.50;;;;;;;23.63;49.99;100473.56;5049018;28;20481;-60
2022/08/29 09:56:59;;;;;;;8.07;2.10;;;;;;;23.68;50.21;100467.72;5050130;28;20045;-61
2022/08/29 09:59:33;;;;;;;4.93;2.35;;;;;;;23.77;50.24;100468.63;5049821;28;20053;-60
2022/08/29 10:02:21;;;;;;;4.50;2.00;;;;;;;23.88;50.52;100475.59;5050091;28;20140;-60
2022/08/29 10:05:00;;;;;;;7.70;2.40;;;;;;;24.01;50.13;100478.72;5050463;28;20127;-59
2022/08/29 10:07:30;;;;;;;5.75;2.22;;;;;;;24.17;50.03;100471.75;5050390;28;20132;-60
2022/08/29 10:09:59;;;;;;;5.95;2.35;;;;;;;24.27;49.78;100460.88;5048451;28;20052;-59
2022/08/29 10:12:44;;;;;;;5.68;2.38;;;;;;;24.30;49.18;100469.47;5050003;28;20045;-60
2022/08/29 10:15:21;;;;;;;3.10;2.22;;;;;;;24.40;50.00;100463.97;5050059;28;20045;-60
2022/08/29 10:18:26;;;;;;;4.72;1.98;;;;;;;24.52;49.57;100471.78;5053077;28;20040;-60
2022/08/29 10:21:11;;;;;;;4.53;1.98;;;;;;;24.66;49.12;100472.97;5052372;28;20049;-59
2022/08/29 10:23:44;;;;;;;4.15;2.30;;;;;;;24.73;48.49;100468.66;5053399;28;20049;-60
2022/08/29 10:26:36;;;;;;;6.25;2.30;;;;;;;24.78;48.95;100471.69;5053107;28;20386;-60
2022/08/29 10:29:28;;;;;;;5.93;2.08;;;;;;;24.88;48.42;100474.28;5052484;28;20048;-59
2022/08/29 10:32:44;;;;;;;4.78;2.03;;;;;;;25.02;48.49;100466.56;5053504;28;20041;-59
2022/08/29 10:35:17;;;;;;;5.55;2.05;;;;;;;25.22;47.89;100462.56;5017784;28;20048;-60
2022/08/29 10:38:08;;;;;;;5.18;2.50;;;;;;;25.36;48.92;100463.75;5053216;28;20492;-60
2022/08/29 10:40:46;;;;;;;6.60;2.03;;;;;;;25.56;47.99;100463.44;5053341;28;20052;-63
2022/08/29 10:43:15;;;;;;;4.03;1.85;;;;;;;25.77;47.86;100470.16;5052728;28;20049;-60
2022/08/29 10:45:54;;;;;;;4.95;2.10;;;;;;;25.89;46.81;100460.72;5052813;28;20048;-62
2022/08/29 10:48:29;;;;;;;5.75;1.85;;;;;;;26.03;46.02;100469.09;5052650;28;20084;-59
2022/08/29 10:51:21;;;;;;;11.60;2.58;;;;;;;26.07;46.14;100459.66;5052980;28;20049;-59
2022/08/29 10:54:02;;;;;;;4.18;2.08;;;;;;;26.11;45.74;100465.53;5051619;28;20063;-60
2022/08/29 10:56:41;;;;;;;3.65;1.95;;;;;;;26.06;45.40;100454.44;5052822;28;20049;-63
2022/08/29 10:59:20;;;;;;;3.97;2.20;;;;;;;26.00;45.05;100464.91;5051157;28;20051;-60
2022/08/29 11:01:58;;;;;;;7.03;2.08;;;;;;;26.02;46.40;100456.66;5052744;28;20584;-59
2022/08/29 11:04:35;;;;;;;7.53;2.40;;;;;;;26.10;46.79;100458.47;5052812;28;20077;-59
2022/08/29 11:07:16;;;;;;;4.70;2.05;;;;;;;26.27;46.68;100453.88;5052454;28;20156;-60
2022/08/29 11:09:54;;;;;;;3.13;2.10;;;;;;;26.56;46.42;100451.56;5052070;28;20057;-60
2022/08/29 11:12:35;;;;;;;4.53;2.58;;;;;;;26.84;45.11;100454.66;5052281;28;20049;-61
2022/08/29 11:15:17;;;;;;;4.78;2.25;;;;;;;27.09;44.99;100457.22;5051321;28;20386;-59
2022/08/29 11:17:52;;;;;;;4.55;2.20;;;;;;;27.30;44.46;100459.25;5052237;28;20049;-60
2022/08/29 11:20:26;;;;;;;3.65;2.03;;;;;;;27.41;43.83;100446.34;5052057;28;20421;-60
2022/08/29 11:22:59;;;;;;;4.60;2.20;;;;;;;27.46;43.50;100454.72;5050789;28;20055;-60
2022/08/29 11:25:26;;;;;;;4.00;2.08;;;;;;;27.52;43.76;100453.16;5050822;28;20045;-61
2022/08/29 11:28:13;;;;;;;4.35;2.10;;;;;;;27.47;43.68;100455.59;5051345;28;20080;-60
2022/08/29 11:30:45;;;;;;;4.80;2.58;;;;;;;27.56;44.37;100446.38;5051978;28;20055;-60
2022/08/29 11:33:23;;;;;;;4.15;2.20;;;;;;;27.70;44.57;100442.88;5051909;28;20051;-60
2022/08/29 11:36:11;;;;;;;4.07;1.80;;;;;;;27.89;44.04;100443.38;5052054;28;20402;-60
2022/08/29 11:38:59;;;;;;;4.97;2.35;;;;;;;28.21;43.31;100435.06;5051640;28;20053;-61
2022/08/29 11:41:31;;;;;;;4.65;2.38;;;;;;;28.60;43.78;100435.78;5051783;28;20048;-62
2022/08/29 11:44:07;;;;;;;5.97;2.30;;;;;;;28.99;43.33;100428.31;5051968;28;20131;-61
2022/08/29 11:46:39;;;;;;;16.58;2.38;;;;;;;29.42;42.76;100427.47;5051832;28;20132;-61
2022/08/29 11:49:32;;;;;;;3.08;2.17;;;;;;;29.82;42.13;100428.81;5050176;28;20052;-60
2022/08/29 11:52:09;;;;;;;4.72;2.05;;;;;;;30.11;40.19;100424.16;5051524;28;20084;-60